sensor_id;sensor_type;location;lat;lon;timestamp;P1;durP1;ratioP1;P2;durP2;ratioP2
62844;SDS011;48929;47.910;20.390;2023-04-03T00:01:37;2.10;;;1.65;;
62844;SDS011;48929;47.910;20.390;2023-04-03T00:04:06;2.38;;;1.50;;
62844;SDS011;48929;47.910;20.390;2023-04-03T00:06:34;2.42;;;1.48;;
62844;SDS011;48929;47.910;20.390;2023-04-03T00:09:03;2.25;;;1.60;;
62844;SDS011;48929;47.910;20.390;2023-04-03T00:11:34;1.98;;;1.50;;
62844;SDS011;48929;47.910;20.390;2023-04-03T00:14:05;1.83;;;1.52;;
62844;SDS011;48929;47.910;20.390;2023-04-03T00:16:33;2.05;;;1.40;;
62844;SDS011;48929;47.910;20.390;2023-04-03T00:19:02;2.35;;;1.60;;
62844;SDS011;48929;47.910;20.390;2023-04-03T00:21:32;3.33;;;1.88;;
62844;SDS011;48929;47.910;20.390;2023-04-03T00:24:01;3.10;;;1.90;;
62844;SDS011;48929;47.910;20.390;2023-04-03T00:26:29;3.08;;;1.90;;
62844;SDS011;48929;47.910;20.390;2023-04-03T00:28:58;2.83;;;1.75;;
62844;SDS011;48929;47.910;20.390;2023-04-03T00:31:28;2.97;;;1.90;;
62844;SDS011;48929;47.910;20.390;2023-04-03T00:33:56;2.30;;;1.70;;
62844;SDS011;48929;47.910;20.390;2023-04-03T00:36:26;3.35;;;1.70;;
62844;SDS011;48929;47.910;20.390;2023-04-03T00:38:55;3.95;;;2.00;;
62844;SDS011;48929;47.910;20.390;2023-04-03T00:41:23;2.83;;;2.00;;
62844;SDS011;48929;47.910;20.390;2023-04-03T00:43:52;3.10;;;2.00;;
62844;SDS011;48929;47.910;20.390;2023-04-03T00:46:21;2.72;;;1.80;;
62844;SDS011;48929;47.910;20.390;2023-04-03T00:48:54;3.60;;;1.90;;
62844;SDS011;48929;47.910;20.390;2023-04-03T00:51:23;3.13;;;2.03;;
62844;SDS011;48929;47.910;20.390;2023-04-03T00:53:54;3.55;;;1.90;;
62844;SDS011;48929;47.910;20.390;2023-04-03T00:56:25;3.83;;;2.15;;
62844;SDS011;48929;47.910;20.390;2023-04-03T00:58:56;3.42;;;2.10;;
62844;SDS011;48929;47.910;20.390;2023-04-03T01:01:28;3.53;;;1.90;;
62844;SDS011;48929;47.910;20.390;2023-04-03T01:03:59;3.20;;;1.90;;
62844;SDS011;48929;47.910;20.390;2023-04-03T01:06:30;3.10;;;1.80;;
62844;SDS011;48929;47.910;20.390;2023-04-03T01:09:02;4.50;;;2.10;;
62844;SDS011;48929;47.910;20.390;2023-04-03T01:11:31;2.58;;;1.85;;
62844;SDS011;48929;47.910;20.390;2023-04-03T01:14:00;3.78;;;1.83;;
62844;SDS011;48929;47.910;20.390;2023-04-03T01:16:29;3.33;;;1.88;;
62844;SDS011;48929;47.910;20.390;2023-04-03T01:19:00;3.65;;;2.13;;
62844;SDS011;48929;47.910;20.390;2023-04-03T01:21:36;4.00;;;2.10;;
62844;SDS011;48929;47.910;20.390;2023-04-03T01:24:30;3.63;;;2.08;;
62844;SDS011;48929;47.910;20.390;2023-04-03T01:27:01;3.25;;;2.17;;
62844;SDS011;48929;47.910;20.390;2023-04-03T01:29:32;2.97;;;1.90;;
62844;SDS011;48929;47.910;20.390;2023-04-03T01:32:03;2.85;;;1.95;;
62844;SDS011;48929;47.910;20.390;2023-04-03T01:34:32;3.08;;;1.95;;
62844;SDS011;48929;47.910;20.390;2023-04-03T01:37:01;3.15;;;2.00;;
62844;SDS011;48929;47.910;20.390;2023-04-03T01:39:29;2.38;;;1.80;;
62844;SDS011;48929;47.910;20.390;2023-04-03T01:41:58;3.78;;;1.98;;
62844;SDS011;48929;47.910;20.390;2023-04-03T01:44:27;3.70;;;1.90;;
62844;SDS011;48929;47.910;20.390;2023-04-03T01:46:56;2.83;;;1.73;;
62844;SDS011;48929;47.910;20.390;2023-04-03T01:49:26;3.47;;;1.95;;
62844;SDS011;48929;47.910;20.390;2023-04-03T01:51:55;3.08;;;2.03;;
62844;SDS011;48929;47.910;20.390;2023-04-03T01:54:24;3.25;;;1.80;;
62844;SDS011;48929;47.910;20.390;2023-04-03T01:56:53;2.53;;;1.83;;
62844;SDS011;48929;47.910;20.390;2023-04-03T01:59:22;2.97;;;1.85;;
62844;SDS011;48929;47.910;20.390;2023-04-03T02:01:51;3.63;;;1.90;;
62844;SDS011;48929;47.910;20.390;2023-04-03T02:04:19;3.33;;;2.00;;
62844;SDS011;48929;47.910;20.390;2023-04-03T02:06:51;3.17;;;1.80;;
62844;SDS011;48929;47.910;20.390;2023-04-03T02:09:19;2.60;;;1.88;;
62844;SDS011;48929;47.910;20.390;2023-04-03T02:11:48;2.20;;;1.75;;
62844;SDS011;48929;47.910;20.390;2023-04-03T02:14:17;3.17;;;2.00;;
62844;SDS011;48929;47.910;20.390;2023-04-03T02:16:46;1.77;;;1.55;;
62844;SDS011;48929;47.910;20.390;2023-04-03T02:19:15;2.78;;;1.88;;
62844;SDS011;48929;47.910;20.390;2023-04-03T02:21:44;2.42;;;1.77;;
62844;SDS011;48929;47.910;20.390;2023-04-03T02:24:14;2.70;;;1.80;;
62844;SDS011;48929;47.910;20.390;2023-04-03T02:26:43;3.03;;;1.80;;
62844;SDS011;48929;47.910;20.390;2023-04-03T02:29:12;2.75;;;1.95;;
62844;SDS011;48929;47.910;20.390;2023-04-03T02:31:41;2.63;;;1.70;;
62844;SDS011;48929;47.910;20.390;2023-04-03T02:34:10;3.20;;;2.13;;
62844;SDS011;48929;47.910;20.390;2023-04-03T02:36:39;3.83;;;2.05;;
62844;SDS011;48929;47.910;20.390;2023-04-03T02:39:08;3.25;;;2.00;;
62844;SDS011;48929;47.910;20.390;2023-04-03T02:41:38;3.17;;;1.88;;
62844;SDS011;48929;47.910;20.390;2023-04-03T02:44:11;3.10;;;1.88;;
62844;SDS011;48929;47.910;20.390;2023-04-03T02:46:41;4.00;;;2.45;;
62844;SDS011;48929;47.910;20.390;2023-04-03T02:49:09;2.92;;;1.90;;
62844;SDS011;48929;47.910;20.390;2023-04-03T02:51:38;3.40;;;2.10;;
62844;SDS011;48929;47.910;20.390;2023-04-03T02:54:07;2.95;;;1.90;;
62844;SDS011;48929;47.910;20.390;2023-04-03T02:56:37;2.67;;;1.77;;
62844;SDS011;48929;47.910;20.390;2023-04-03T02:59:06;2.95;;;1.90;;
62844;SDS011;48929;47.910;20.390;2023-04-03T03:01:36;2.60;;;1.80;;
62844;SDS011;48929;47.910;20.390;2023-04-03T03:04:04;2.53;;;1.80;;
62844;SDS011;48929;47.910;20.390;2023-04-03T03:06:33;2.88;;;1.90;;
62844;SDS011;48929;47.910;20.390;2023-04-03T03:09:02;3.70;;;2.00;;
62844;SDS011;48929;47.910;20.390;2023-04-03T03:11:32;3.78;;;2.13;;
62844;SDS011;48929;47.910;20.390;2023-04-03T03:14:03;2.95;;;1.88;;
62844;SDS011;48929;47.910;20.390;2023-04-03T03:16:31;5.97;;;2.10;;
62844;SDS011;48929;47.910;20.390;2023-04-03T03:19:01;2.63;;;1.70;;
62844;SDS011;48929;47.910;20.390;2023-04-03T03:21:29;2.75;;;1.80;;
62844;SDS011;48929;47.910;20.390;2023-04-03T03:23:58;2.25;;;1.60;;
62844;SDS011;48929;47.910;20.390;2023-04-03T03:26:26;4.75;;;2.00;;
62844;SDS011;48929;47.910;20.390;2023-04-03T03:28:55;2.65;;;1.90;;
62844;SDS011;48929;47.910;20.390;2023-04-03T03:31:25;3.08;;;2.00;;
62844;SDS011;48929;47.910;20.390;2023-04-03T03:33:54;2.35;;;1.70;;
62844;SDS011;48929;47.910;20.390;2023-04-03T03:36:23;3.30;;;1.80;;
62844;SDS011;48929;47.910;20.390;2023-04-03T03:38:54;3.05;;;1.90;;
62844;SDS011;48929;47.910;20.390;2023-04-03T03:41:24;2.97;;;1.90;;
62844;SDS011;48929;47.910;20.390;2023-04-03T03:43:52;2.40;;;1.70;;
62844;SDS011;48929;47.910;20.390;2023-04-03T03:46:21;3.42;;;1.85;;
62844;SDS011;48929;47.910;20.390;2023-04-03T03:48:52;2.58;;;1.73;;
62844;SDS011;48929;47.910;20.390;2023-04-03T03:51:20;2.60;;;1.77;;
62844;SDS011;48929;47.910;20.390;2023-04-03T03:53:49;3.00;;;1.80;;
62844;SDS011;48929;47.910;20.390;2023-04-03T03:56:18;3.15;;;2.03;;
62844;SDS011;48929;47.910;20.390;2023-04-03T03:58:47;3.83;;;2.30;;
62844;SDS011;48929;47.910;20.390;2023-04-03T04:01:16;3.92;;;2.10;;
62844;SDS011;48929;47.910;20.390;2023-04-03T04:03:44;5.97;;;2.10;;
62844;SDS011;48929;47.910;20.390;2023-04-03T04:06:16;2.10;;;1.60;;
62844;SDS011;48929;47.910;20.390;2023-04-03T04:08:45;2.50;;;1.70;;
62844;SDS011;48929;47.910;20.390;2023-04-03T04:11:13;3.35;;;1.98;;
62844;SDS011;48929;47.910;20.390;2023-04-03T04:13:42;2.70;;;1.73;;
62844;SDS011;48929;47.910;20.390;2023-04-03T04:16:11;3.10;;;1.98;;
62844;SDS011;48929;47.910;20.390;2023-04-03T04:18:40;2.95;;;2.00;;
62844;SDS011;48929;47.910;20.390;2023-04-03T04:21:08;6.80;;;2.30;;
62844;SDS011;48929;47.910;20.390;2023-04-03T04:23:38;3.85;;;2.38;;
62844;SDS011;48929;47.910;20.390;2023-04-03T04:26:07;3.72;;;2.10;;
62844;SDS011;48929;47.910;20.390;2023-04-03T04:28:36;9.07;;;2.78;;
62844;SDS011;48929;47.910;20.390;2023-04-03T04:31:08;3.58;;;2.20;;
62844;SDS011;48929;47.910;20.390;2023-04-03T04:33:37;3.20;;;1.95;;
62844;SDS011;48929;47.910;20.390;2023-04-03T04:36:09;4.82;;;2.10;;
62844;SDS011;48929;47.910;20.390;2023-04-03T04:38:39;4.47;;;2.10;;
62844;SDS011;48929;47.910;20.390;2023-04-03T04:41:11;3.88;;;2.20;;
62844;SDS011;48929;47.910;20.390;2023-04-03T04:43:40;9.45;;;2.53;;
62844;SDS011;48929;47.910;20.390;2023-04-03T04:46:09;10.15;;;3.08;;
62844;SDS011;48929;47.910;20.390;2023-04-03T04:48:39;7.90;;;3.20;;
62844;SDS011;48929;47.910;20.390;2023-04-03T04:51:08;6.53;;;2.90;;
62844;SDS011;48929;47.910;20.390;2023-04-03T04:53:36;4.97;;;3.03;;
62844;SDS011;48929;47.910;20.390;2023-04-03T04:56:07;6.40;;;4.00;;
62844;SDS011;48929;47.910;20.390;2023-04-03T04:58:38;7.55;;;3.65;;
62844;SDS011;48929;47.910;20.390;2023-04-03T05:01:08;4.95;;;3.47;;
62844;SDS011;48929;47.910;20.390;2023-04-03T05:03:38;4.55;;;2.40;;
62844;SDS011;48929;47.910;20.390;2023-04-03T05:06:07;3.60;;;2.20;;
62844;SDS011;48929;47.910;20.390;2023-04-03T05:08:36;3.85;;;2.30;;
62844;SDS011;48929;47.910;20.390;2023-04-03T05:11:06;4.10;;;2.50;;
62844;SDS011;48929;47.910;20.390;2023-04-03T05:13:35;5.72;;;3.35;;
62844;SDS011;48929;47.910;20.390;2023-04-03T05:16:04;4.60;;;3.05;;
62844;SDS011;48929;47.910;20.390;2023-04-03T05:18:33;4.05;;;2.63;;
62844;SDS011;48929;47.910;20.390;2023-04-03T05:21:02;5.78;;;3.40;;
62844;SDS011;48929;47.910;20.390;2023-04-03T05:23:31;5.45;;;3.10;;
62844;SDS011;48929;47.910;20.390;2023-04-03T05:26:00;6.28;;;3.47;;
62844;SDS011;48929;47.910;20.390;2023-04-03T05:28:30;3.72;;;2.70;;
62844;SDS011;48929;47.910;20.390;2023-04-03T05:30:59;8.20;;;3.08;;
62844;SDS011;48929;47.910;20.390;2023-04-03T05:33:29;8.35;;;4.00;;
62844;SDS011;48929;47.910;20.390;2023-04-03T05:36:02;6.35;;;3.95;;
62844;SDS011;48929;47.910;20.390;2023-04-03T05:38:31;6.18;;;3.20;;
62844;SDS011;48929;47.910;20.390;2023-04-03T05:41:00;4.82;;;3.00;;
62844;SDS011;48929;47.910;20.390;2023-04-03T05:43:31;4.03;;;2.60;;
62844;SDS011;48929;47.910;20.390;2023-04-03T05:46:07;5.07;;;2.20;;
62844;SDS011;48929;47.910;20.390;2023-04-03T05:48:39;3.70;;;2.00;;
62844;SDS011;48929;47.910;20.390;2023-04-03T05:51:09;1.50;;;1.40;;
62844;SDS011;48929;47.910;20.390;2023-04-03T05:53:44;1.10;;;0.90;;
62844;SDS011;48929;47.910;20.390;2023-04-03T05:56:13;0.68;;;0.68;;
62844;SDS011;48929;47.910;20.390;2023-04-03T05:58:47;1.48;;;1.08;;
62844;SDS011;48929;47.910;20.390;2023-04-03T06:01:15;0.75;;;0.70;;
62844;SDS011;48929;47.910;20.390;2023-04-03T06:03:44;0.98;;;0.88;;
62844;SDS011;48929;47.910;20.390;2023-04-03T06:06:13;0.80;;;0.80;;
62844;SDS011;48929;47.910;20.390;2023-04-03T06:08:42;1.10;;;1.00;;
62844;SDS011;48929;47.910;20.390;2023-04-03T06:11:11;2.05;;;0.90;;
62844;SDS011;48929;47.910;20.390;2023-04-03T06:13:40;1.27;;;0.93;;
62844;SDS011;48929;47.910;20.390;2023-04-03T06:16:10;1.10;;;0.95;;
62844;SDS011;48929;47.910;20.390;2023-04-03T06:18:42;1.27;;;1.10;;
62844;SDS011;48929;47.910;20.390;2023-04-03T06:21:10;1.05;;;0.90;;
62844;SDS011;48929;47.910;20.390;2023-04-03T06:23:39;0.80;;;0.80;;
62844;SDS011;48929;47.910;20.390;2023-04-03T06:26:08;0.77;;;0.75;;
62844;SDS011;48929;47.910;20.390;2023-04-03T06:28:37;0.90;;;0.80;;
62844;SDS011;48929;47.910;20.390;2023-04-03T06:31:06;1.00;;;0.88;;
62844;SDS011;48929;47.910;20.390;2023-04-03T06:33:37;0.80;;;0.80;;
62844;SDS011;48929;47.910;20.390;2023-04-03T06:36:06;1.25;;;0.85;;
62844;SDS011;48929;47.910;20.390;2023-04-03T06:38:36;0.73;;;0.73;;
62844;SDS011;48929;47.910;20.390;2023-04-03T06:41:07;1.48;;;0.93;;
62844;SDS011;48929;47.910;20.390;2023-04-03T06:43:36;1.45;;;0.90;;
62844;SDS011;48929;47.910;20.390;2023-04-03T06:46:04;1.00;;;0.85;;
62844;SDS011;48929;47.910;20.390;2023-04-03T06:48:33;1.00;;;1.00;;
62844;SDS011;48929;47.910;20.390;2023-04-03T06:51:04;0.68;;;0.68;;
62844;SDS011;48929;47.910;20.390;2023-04-03T06:53:33;0.60;;;0.60;;
62844;SDS011;48929;47.910;20.390;2023-04-03T06:56:02;0.70;;;0.70;;
62844;SDS011;48929;47.910;20.390;2023-04-03T06:58:31;1.45;;;0.80;;
62844;SDS011;48929;47.910;20.390;2023-04-03T07:01:00;0.73;;;0.73;;
62844;SDS011;48929;47.910;20.390;2023-04-03T07:03:29;1.15;;;1.02;;
62844;SDS011;48929;47.910;20.390;2023-04-03T07:06:00;0.80;;;0.80;;
62844;SDS011;48929;47.910;20.390;2023-04-03T07:08:30;0.73;;;0.68;;
62844;SDS011;48929;47.910;20.390;2023-04-03T07:11:00;1.08;;;0.80;;
62844;SDS011;48929;47.910;20.390;2023-04-03T07:13:29;0.80;;;0.80;;
62844;SDS011;48929;47.910;20.390;2023-04-03T07:15:58;0.70;;;0.70;;
62844;SDS011;48929;47.910;20.390;2023-04-03T07:18:28;1.13;;;1.02;;
62844;SDS011;48929;47.910;20.390;2023-04-03T07:20:57;0.60;;;0.60;;
62844;SDS011;48929;47.910;20.390;2023-04-03T07:23:26;0.90;;;0.90;;
62844;SDS011;48929;47.910;20.390;2023-04-03T07:25:58;1.90;;;0.90;;
62844;SDS011;48929;47.910;20.390;2023-04-03T07:28:27;1.05;;;1.00;;
62844;SDS011;48929;47.910;20.390;2023-04-03T07:30:59;1.77;;;0.70;;
62844;SDS011;48929;47.910;20.390;2023-04-03T07:33:29;0.90;;;0.70;;
62844;SDS011;48929;47.910;20.390;2023-04-03T07:35:58;1.08;;;0.95;;
62844;SDS011;48929;47.910;20.390;2023-04-03T07:38:28;1.05;;;0.90;;
62844;SDS011;48929;47.910;20.390;2023-04-03T07:40:58;1.05;;;0.93;;
62844;SDS011;48929;47.910;20.390;2023-04-03T07:43:27;0.80;;;0.80;;
62844;SDS011;48929;47.910;20.390;2023-04-03T07:45:56;1.58;;;0.88;;
62844;SDS011;48929;47.910;20.390;2023-04-03T07:48:25;1.98;;;0.93;;
62844;SDS011;48929;47.910;20.390;2023-04-03T07:50:58;1.42;;;0.93;;
62844;SDS011;48929;47.910;20.390;2023-04-03T07:53:36;0.73;;;0.73;;
62844;SDS011;48929;47.910;20.390;2023-04-03T07:56:06;1.00;;;0.90;;
62844;SDS011;48929;47.910;20.390;2023-04-03T07:58:35;1.38;;;1.10;;
62844;SDS011;48929;47.910;20.390;2023-04-03T08:01:04;1.08;;;0.98;;
62844;SDS011;48929;47.910;20.390;2023-04-03T08:03:33;0.73;;;0.70;;
62844;SDS011;48929;47.910;20.390;2023-04-03T08:06:04;1.15;;;1.05;;
62844;SDS011;48929;47.910;20.390;2023-04-03T08:08:41;1.15;;;1.00;;
62844;SDS011;48929;47.910;20.390;2023-04-03T08:11:11;0.90;;;0.68;;
62844;SDS011;48929;47.910;20.390;2023-04-03T08:13:40;2.05;;;1.20;;
62844;SDS011;48929;47.910;20.390;2023-04-03T08:16:10;1.60;;;1.10;;
62844;SDS011;48929;47.910;20.390;2023-04-03T08:18:40;2.13;;;1.00;;
62844;SDS011;48929;47.910;20.390;2023-04-03T08:21:10;1.23;;;0.90;;
62844;SDS011;48929;47.910;20.390;2023-04-03T08:23:40;1.23;;;1.05;;
62844;SDS011;48929;47.910;20.390;2023-04-03T08:26:11;1.90;;;1.08;;
62844;SDS011;48929;47.910;20.390;2023-04-03T08:28:41;1.20;;;1.10;;
62844;SDS011;48929;47.910;20.390;2023-04-03T08:31:11;2.33;;;1.20;;
62844;SDS011;48929;47.910;20.390;2023-04-03T08:33:42;2.35;;;1.30;;
62844;SDS011;48929;47.910;20.390;2023-04-03T08:36:16;2.05;;;1.40;;
62844;SDS011;48929;47.910;20.390;2023-04-03T08:38:47;1.03;;;0.93;;
62844;SDS011;48929;47.910;20.390;2023-04-03T08:41:20;1.20;;;1.10;;
62844;SDS011;48929;47.910;20.390;2023-04-03T08:44:08;1.05;;;1.00;;
62844;SDS011;48929;47.910;20.390;2023-04-03T08:46:46;2.27;;;1.37;;
62844;SDS011;48929;47.910;20.390;2023-04-03T08:49:24;1.10;;;0.90;;
62844;SDS011;48929;47.910;20.390;2023-04-03T08:51:57;0.85;;;0.82;;
62844;SDS011;48929;47.910;20.390;2023-04-03T08:54:30;1.15;;;1.05;;
62844;SDS011;48929;47.910;20.390;2023-04-03T08:57:04;1.10;;;0.98;;
62844;SDS011;48929;47.910;20.390;2023-04-03T08:59:34;0.95;;;0.90;;
62844;SDS011;48929;47.910;20.390;2023-04-03T09:02:13;1.10;;;1.00;;
62844;SDS011;48929;47.910;20.390;2023-04-03T09:04:53;1.10;;;0.85;;
62844;SDS011;48929;47.910;20.390;2023-04-03T09:07:25;1.20;;;1.10;;
62844;SDS011;48929;47.910;20.390;2023-04-03T09:10:01;1.65;;;1.00;;
62844;SDS011;48929;47.910;20.390;2023-04-03T09:12:34;1.85;;;0.93;;
62844;SDS011;48929;47.910;20.390;2023-04-03T09:17:41;2.35;;;1.02;;
62844;SDS011;48929;47.910;20.390;2023-04-03T09:20:17;1.00;;;1.00;;
62844;SDS011;48929;47.910;20.390;2023-04-03T09:22:51;2.35;;;1.58;;
62844;SDS011;48929;47.910;20.390;2023-04-03T09:25:22;1.13;;;1.02;;
62844;SDS011;48929;47.910;20.390;2023-04-03T09:27:56;1.13;;;1.00;;
62844;SDS011;48929;47.910;20.390;2023-04-03T09:30:25;1.17;;;1.08;;
62844;SDS011;48929;47.910;20.390;2023-04-03T09:32:55;1.73;;;0.95;;
62844;SDS011;48929;47.910;20.390;2023-04-03T09:35:26;1.08;;;1.00;;
62844;SDS011;48929;47.910;20.390;2023-04-03T09:38:20;1.42;;;1.10;;
62844;SDS011;48929;47.910;20.390;2023-04-03T09:40:51;1.15;;;1.00;;
62844;SDS011;48929;47.910;20.390;2023-04-03T09:43:34;1.35;;;1.17;;
62844;SDS011;48929;47.910;20.390;2023-04-03T09:46:20;1.10;;;1.00;;
62844;SDS011;48929;47.910;20.390;2023-04-03T09:48:56;0.70;;;0.70;;
62844;SDS011;48929;47.910;20.390;2023-04-03T09:51:35;1.48;;;1.10;;
62844;SDS011;48929;47.910;20.390;2023-04-03T09:57:00;1.48;;;1.30;;
62844;SDS011;48929;47.910;20.390;2023-04-03T09:59:36;1.08;;;0.98;;
62844;SDS011;48929;47.910;20.390;2023-04-03T10:02:20;2.40;;;1.10;;
62844;SDS011;48929;47.910;20.390;2023-04-03T10:05:03;0.98;;;0.90;;
62844;SDS011;48929;47.910;20.390;2023-04-03T10:07:37;0.77;;;0.77;;
62844;SDS011;48929;47.910;20.390;2023-04-03T10:10:16;1.27;;;1.17;;
62844;SDS011;48929;47.910;20.390;2023-04-03T10:12:47;1.75;;;0.90;;
62844;SDS011;48929;47.910;20.390;2023-04-03T10:15:18;1.30;;;1.20;;
62844;SDS011;48929;47.910;20.390;2023-04-03T10:17:50;1.40;;;1.30;;
62844;SDS011;48929;47.910;20.390;2023-04-03T10:20:35;1.38;;;0.93;;
62844;SDS011;48929;47.910;20.390;2023-04-03T10:23:14;1.30;;;1.17;;
62844;SDS011;48929;47.910;20.390;2023-04-03T10:25:49;1.83;;;1.30;;
62844;SDS011;48929;47.910;20.390;2023-04-03T10:28:27;1.23;;;1.13;;
62844;SDS011;48929;47.910;20.390;2023-04-03T10:31:02;1.05;;;0.98;;
62844;SDS011;48929;47.910;20.390;2023-04-03T10:33:45;2.13;;;1.20;;
62844;SDS011;48929;47.910;20.390;2023-04-03T10:36:24;1.20;;;0.93;;
62844;SDS011;48929;47.910;20.390;2023-04-03T10:39:02;1.58;;;1.30;;
62844;SDS011;48929;47.910;20.390;2023-04-03T10:41:43;2.00;;;1.30;;
62844;SDS011;48929;47.910;20.390;2023-04-03T10:44:32;1.40;;;1.30;;
62844;SDS011;48929;47.910;20.390;2023-04-03T10:47:11;1.98;;;1.50;;
62844;SDS011;48929;47.910;20.390;2023-04-03T10:49:51;1.30;;;1.20;;
62844;SDS011;48929;47.910;20.390;2023-04-03T10:52:29;2.25;;;1.20;;
62844;SDS011;48929;47.910;20.390;2023-04-03T10:55:09;1.73;;;1.60;;
62844;SDS011;48929;47.910;20.390;2023-04-03T10:57:52;1.58;;;1.40;;
62844;SDS011;48929;47.910;20.390;2023-04-03T11:00:25;1.50;;;1.38;;
62844;SDS011;48929;47.910;20.390;2023-04-03T11:03:05;1.83;;;1.17;;
62844;SDS011;48929;47.910;20.390;2023-04-03T11:05:40;1.30;;;1.20;;
62844;SDS011;48929;47.910;20.390;2023-04-03T11:08:24;1.65;;;1.30;;
62844;SDS011;48929;47.910;20.390;2023-04-03T11:11:00;1.38;;;1.13;;
62844;SDS011;48929;47.910;20.390;2023-04-03T11:13:37;2.55;;;1.40;;
62844;SDS011;48929;47.910;20.390;2023-04-03T11:16:12;2.53;;;1.70;;
62844;SDS011;48929;47.910;20.390;2023-04-03T11:18:46;1.48;;;1.30;;
62844;SDS011;48929;47.910;20.390;2023-04-03T11:21:19;1.50;;;1.30;;
62844;SDS011;48929;47.910;20.390;2023-04-03T11:23:51;2.90;;;1.30;;
62844;SDS011;48929;47.910;20.390;2023-04-03T11:26:21;1.40;;;1.30;;
62844;SDS011;48929;47.910;20.390;2023-04-03T11:28:56;1.48;;;1.38;;
62844;SDS011;48929;47.910;20.390;2023-04-03T11:31:43;1.42;;;1.30;;
62844;SDS011;48929;47.910;20.390;2023-04-03T11:34:31;1.45;;;1.25;;
62844;SDS011;48929;47.910;20.390;2023-04-03T11:37:05;2.65;;;1.35;;
62844;SDS011;48929;47.910;20.390;2023-04-03T11:39:47;1.25;;;1.10;;
62844;SDS011;48929;47.910;20.390;2023-04-03T11:42:24;1.58;;;1.30;;
62844;SDS011;48929;47.910;20.390;2023-04-03T11:45:15;2.10;;;1.35;;
62844;SDS011;48929;47.910;20.390;2023-04-03T11:47:56;2.45;;;1.42;;
62844;SDS011;48929;47.910;20.390;2023-04-03T11:50:44;2.60;;;1.45;;
62844;SDS011;48929;47.910;20.390;2023-04-03T11:53:33;1.63;;;1.20;;
62844;SDS011;48929;47.910;20.390;2023-04-03T11:56:04;3.75;;;1.58;;
62844;SDS011;48929;47.910;20.390;2023-04-03T12:01:50;1.77;;;1.40;;
62844;SDS011;48929;47.910;20.390;2023-04-03T12:04:22;1.40;;;1.30;;
62844;SDS011;48929;47.910;20.390;2023-04-03T12:06:58;1.25;;;1.15;;
62844;SDS011;48929;47.910;20.390;2023-04-03T12:12:58;1.42;;;1.05;;
62844;SDS011;48929;47.910;20.390;2023-04-03T12:25:09;1.50;;;1.40;;
62844;SDS011;48929;47.910;20.390;2023-04-03T12:40:17;1.52;;;1.40;;
62844;SDS011;48929;47.910;20.390;2023-04-03T12:42:59;2.08;;;1.40;;
62844;SDS011;48929;47.910;20.390;2023-04-03T12:45:39;1.85;;;1.40;;
62844;SDS011;48929;47.910;20.390;2023-04-03T12:48:13;2.05;;;1.40;;
62844;SDS011;48929;47.910;20.390;2023-04-03T12:50:44;2.00;;;1.63;;
62844;SDS011;48929;47.910;20.390;2023-04-03T12:53:15;1.88;;;1.50;;
62844;SDS011;48929;47.910;20.390;2023-04-03T12:55:54;1.50;;;1.40;;
62844;SDS011;48929;47.910;20.390;2023-04-03T12:58:24;1.98;;;1.60;;
62844;SDS011;48929;47.910;20.390;2023-04-03T13:00:58;1.50;;;1.33;;
62844;SDS011;48929;47.910;20.390;2023-04-03T13:03:29;2.05;;;1.60;;
62844;SDS011;48929;47.910;20.390;2023-04-03T13:05:59;1.50;;;1.27;;
62844;SDS011;48929;47.910;20.390;2023-04-03T13:08:29;2.25;;;1.63;;
62844;SDS011;48929;47.910;20.390;2023-04-03T13:11:01;1.15;;;0.90;;
62844;SDS011;48929;47.910;20.390;2023-04-03T13:13:31;1.67;;;1.50;;
62844;SDS011;48929;47.910;20.390;2023-04-03T13:16:01;1.67;;;1.58;;
62844;SDS011;48929;47.910;20.390;2023-04-03T13:18:37;1.40;;;1.30;;
62844;SDS011;48929;47.910;20.390;2023-04-03T13:21:07;2.03;;;1.55;;
62844;SDS011;48929;47.910;20.390;2023-04-03T13:23:43;2.73;;;1.47;;
62844;SDS011;48929;47.910;20.390;2023-04-03T13:26:18;1.73;;;1.50;;
62844;SDS011;48929;47.910;20.390;2023-04-03T13:28:50;2.30;;;1.60;;
62844;SDS011;48929;47.910;20.390;2023-04-03T13:31:21;1.35;;;1.25;;
62844;SDS011;48929;47.910;20.390;2023-04-03T13:33:54;1.95;;;1.50;;
62844;SDS011;48929;47.910;20.390;2023-04-03T13:36:29;2.70;;;1.63;;
62844;SDS011;48929;47.910;20.390;2023-04-03T13:39:01;1.60;;;1.50;;
62844;SDS011;48929;47.910;20.390;2023-04-03T13:41:34;1.67;;;1.30;;
62844;SDS011;48929;47.910;20.390;2023-04-03T13:44:23;1.77;;;1.50;;
62844;SDS011;48929;47.910;20.390;2023-04-03T13:46:56;2.40;;;1.80;;
62844;SDS011;48929;47.910;20.390;2023-04-03T13:49:31;1.77;;;1.60;;
62844;SDS011;48929;47.910;20.390;2023-04-03T13:52:02;2.63;;;1.70;;
62844;SDS011;48929;47.910;20.390;2023-04-03T13:54:34;2.75;;;1.75;;
62844;SDS011;48929;47.910;20.390;2023-04-03T13:57:13;1.92;;;1.70;;
62844;SDS011;48929;47.910;20.390;2023-04-03T13:59:43;3.75;;;1.60;;
62844;SDS011;48929;47.910;20.390;2023-04-03T14:02:14;2.10;;;1.63;;
62844;SDS011;48929;47.910;20.390;2023-04-03T14:04:48;1.52;;;1.35;;
62844;SDS011;48929;47.910;20.390;2023-04-03T14:07:23;2.42;;;1.60;;
62844;SDS011;48929;47.910;20.390;2023-04-03T14:09:52;1.70;;;1.60;;
62844;SDS011;48929;47.910;20.390;2023-04-03T14:12:31;1.70;;;1.60;;
62844;SDS011;48929;47.910;20.390;2023-04-03T14:15:03;2.22;;;1.60;;
62844;SDS011;48929;47.910;20.390;2023-04-03T14:17:33;2.08;;;1.52;;
62844;SDS011;48929;47.910;20.390;2023-04-03T14:20:03;2.58;;;1.80;;
62844;SDS011;48929;47.910;20.390;2023-04-03T14:22:33;3.10;;;1.80;;
62844;SDS011;48929;47.910;20.390;2023-04-03T14:25:02;2.35;;;1.77;;
62844;SDS011;48929;47.910;20.390;2023-04-03T14:27:36;2.63;;;1.55;;
62844;SDS011;48929;47.910;20.390;2023-04-03T14:30:08;3.47;;;1.70;;
62844;SDS011;48929;47.910;20.390;2023-04-03T14:32:41;2.33;;;1.70;;
62844;SDS011;48929;47.910;20.390;2023-04-03T14:35:11;3.15;;;1.80;;
62844;SDS011;48929;47.910;20.390;2023-04-03T14:37:41;3.08;;;2.00;;
62844;SDS011;48929;47.910;20.390;2023-04-03T14:40:11;2.80;;;2.00;;
62844;SDS011;48929;47.910;20.390;2023-04-03T14:42:43;3.63;;;2.03;;
62844;SDS011;48929;47.910;20.390;2023-04-03T14:45:16;4.07;;;2.00;;
62844;SDS011;48929;47.910;20.390;2023-04-03T14:47:45;3.20;;;2.20;;
62844;SDS011;48929;47.910;20.390;2023-04-03T14:50:17;3.17;;;2.00;;
62844;SDS011;48929;47.910;20.390;2023-04-03T14:52:49;3.15;;;1.98;;
62844;SDS011;48929;47.910;20.390;2023-04-03T14:55:21;2.38;;;1.95;;
62844;SDS011;48929;47.910;20.390;2023-04-03T14:57:54;2.67;;;2.00;;
62844;SDS011;48929;47.910;20.390;2023-04-03T15:00:22;3.33;;;2.30;;
62844;SDS011;48929;47.910;20.390;2023-04-03T15:02:51;3.22;;;2.20;;
62844;SDS011;48929;47.910;20.390;2023-04-03T15:05:20;3.85;;;2.30;;
62844;SDS011;48929;47.910;20.390;2023-04-03T15:07:49;3.35;;;2.20;;
62844;SDS011;48929;47.910;20.390;2023-04-03T15:10:22;2.70;;;2.00;;
62844;SDS011;48929;47.910;20.390;2023-04-03T15:12:52;3.45;;;2.05;;
62844;SDS011;48929;47.910;20.390;2023-04-03T15:15:23;3.15;;;2.13;;
62844;SDS011;48929;47.910;20.390;2023-04-03T15:17:53;2.85;;;2.20;;
62844;SDS011;48929;47.910;20.390;2023-04-03T15:20:27;2.67;;;1.70;;
62844;SDS011;48929;47.910;20.390;2023-04-03T15:22:57;2.75;;;2.00;;
62844;SDS011;48929;47.910;20.390;2023-04-03T15:25:30;3.50;;;2.40;;
62844;SDS011;48929;47.910;20.390;2023-04-03T15:28:02;2.42;;;1.90;;
62844;SDS011;48929;47.910;20.390;2023-04-03T15:30:31;3.85;;;2.40;;
62844;SDS011;48929;47.910;20.390;2023-04-03T15:33:00;3.65;;;2.70;;
62844;SDS011;48929;47.910;20.390;2023-04-03T15:35:29;3.17;;;2.20;;